Time;durP1;ratioP1;P1;durP2;ratioP2;P2;SDS_P1;SDS_P2;PMS_P1;PMS_P2;Temp;Humidity;BMP_temperature;BMP_pressure;BME280_temperature;BME280_humidity;BME280_pressure;Samples;Min_cycle;Max_cycle;Signal;HPM_P1;HPM_P2
2021/05/26 00:01:10;;;;;;;1.27;1.12;;;;;;;9.70;71.57;100497.94;5152657;56;1136538;-75
2021/05/26 00:06:16;;;;;;;1.75;1.05;;;;;;;9.67;71.23;100498.16;5185493;56;1136534;-75
2021/05/26 00:11:22;;;;;;;3.10;0.98;;;;;;;9.64;71.71;100501.02;5185442;56;1136343;-75
2021/05/26 00:16:27;;;;;;;3.20;1.10;;;;;;;9.59;72.04;100497.91;5185498;56;1136441;-75
2021/05/26 00:21:34;;;;;;;1.07;1.00;;;;;;;9.57;72.18;100507.25;5185609;56;1137205;-75
2021/05/26 00:26:41;;;;;;;2.40;1.00;;;;;;;9.53;71.94;100510.59;5185477;56;1136286;-77
2021/05/26 00:31:47;;;;;;;1.47;0.97;;;;;;;9.46;72.25;100501.45;5175560;56;1136706;-78
2021/05/26 00:36:53;;;;;;;1.00;0.90;;;;;;;9.41;72.83;100506.69;5151119;56;1136303;-77
2021/05/26 00:42:00;;;;;;;2.40;0.80;;;;;;;9.36;73.76;100504.84;5081233;56;1141630;-76
2021/05/26 00:47:05;;;;;;;1.80;1.12;;;;;;;9.31;73.00;100507.84;5066671;57;1137048;-75
2021/05/26 00:52:11;;;;;;;1.00;1.00;;;;;;;9.29;73.56;100512.39;5066943;57;1137244;-73
2021/05/26 00:57:17;;;;;;;1.62;0.90;;;;;;;9.29;73.90;100504.47;5066757;57;1137011;-75
2021/05/26 01:02:23;;;;;;;2.33;1.57;;;;;;;9.31;73.84;100501.25;5066286;57;1137268;-77
2021/05/26 01:07:30;;;;;;;1.13;1.00;;;;;;;9.32;74.14;100491.03;5066526;57;1136884;-79
2021/05/26 01:12:37;;;;;;;0.80;0.70;;;;;;;9.35;73.79;100488.17;5066766;57;1136798;-78
2021/05/26 01:17:44;;;;;;;1.00;0.77;;;;;;;9.34;74.22;100497.04;5066379;57;1136661;-73
2021/05/26 01:22:53;;;;;;;1.03;0.90;;;;;;;9.34;74.60;100497.04;5066424;57;1136854;-77
2021/05/26 01:28:02;;;;;;;1.20;1.17;;;;;;;9.36;74.43;100498.25;5066772;57;1137104;-76
2021/05/26 01:33:08;;;;;;;0.80;0.70;;;;;;;9.29;74.32;100503.16;5074435;57;1137074;-75
2021/05/26 01:38:24;;;;;;;1.73;0.97;;;;;;;9.26;74.96;100498.56;5099061;56;1136745;-75
2021/05/26 01:43:32;;;;;;;3.00;1.30;;;;;;;9.20;74.52;100498.52;5099573;56;1136951;-78
2021/05/26 01:48:39;;;;;;;5.37;1.73;;;;;;;9.21;74.35;100500.21;5099682;56;1136823;-75
2021/05/26 01:53:47;;;;;;;3.67;1.40;;;;;;;9.12;74.99;100503.05;5099626;56;1137278;-74
2021/05/26 01:58:57;;;;;;;2.17;1.80;;;;;;;9.05;75.24;100503.11;5099721;57;1137116;-78
2021/05/26 02:04:05;;;;;;;2.70;1.80;;;;;;;8.98;75.44;100502.34;5099148;56;1137149;-77
2021/05/26 02:09:10;;;;;;;4.60;1.87;;;;;;;8.91;76.38;100507.67;5099855;56;1136780;-76
2021/05/26 02:14:16;;;;;;;2.35;1.50;;;;;;;8.87;75.42;100510.16;5099661;56;1137068;-72
2021/05/26 02:19:22;;;;;;;1.22;1.12;;;;;;;8.85;75.83;100508.13;5099419;56;1136867;-72
2021/05/26 02:24:30;;;;;;;1.33;1.20;;;;;;;8.86;75.20;100513.27;5099829;56;1136837;-75
2021/05/26 02:29:37;;;;;;;4.47;1.47;;;;;;;8.82;75.41;100510.50;5099575;56;1136707;-71
2021/05/26 02:34:44;;;;;;;1.17;1.07;;;;;;;8.77;75.04;100510.81;5099701;56;1136793;-74
2021/05/26 02:39:50;;;;;;;1.20;1.20;;;;;;;8.78;75.01;100515.14;5099575;56;1136784;-76
2021/05/26 02:44:57;;;;;;;3.23;1.47;;;;;;;8.71;75.08;100522.25;5099798;56;1137082;-76
2021/05/26 02:50:05;;;;;;;3.33;1.23;;;;;;;8.68;75.24;100527.77;5100138;56;1137043;-74
2021/05/26 02:55:14;;;;;;;2.17;1.30;;;;;;;8.65;75.07;100527.50;5100157;56;1136868;-75
2021/05/26 03:00:24;;;;;;;1.23;1.23;;;;;;;8.60;75.10;100531.39;5097392;56;1136791;-72
2021/05/26 03:05:37;;;;;;;1.70;1.50;;;;;;;8.60;75.21;100534.88;5017201;56;1136507;-73
2021/05/26 03:10:44;;;;;;;2.40;1.60;;;;;;;8.58;75.26;100539.41;5099394;56;1136659;-75
2021/05/26 03:15:52;;;;;;;1.57;1.37;;;;;;;8.56;75.50;100546.56;5078575;56;1136525;-78
2021/05/26 03:20:59;;;;;;;1.40;1.30;;;;;;;8.53;75.51;100548.13;5100003;56;1136822;-77
2021/05/26 03:26:07;;;;;;;0.97;0.97;;;;;;;8.51;75.95;100554.44;5097153;56;1138195;-78
2021/05/26 03:31:12;;;;;;;2.58;1.02;;;;;;;8.49;76.44;100551.91;5100256;56;1136791;-79
2021/05/26 03:36:18;;;;;;;1.40;1.30;;;;;;;8.47;76.28;100555.12;5098494;56;1136836;-73
2021/05/26 03:41:25;;;;;;;4.67;1.60;;;;;;;8.48;77.02;100559.92;5091135;57;1136545;-76
2021/05/26 03:46:31;;;;;;;1.33;1.23;;;;;;;8.55;76.62;100554.61;5091034;57;1136354;-73
2021/05/26 03:51:38;;;;;;;1.60;1.10;;;;;;;8.58;76.67;100560.49;5091218;57;1136395;-75
2021/05/26 03:56:46;;;;;;;0.83;0.83;;;;;;;8.64;76.75;100550.85;5091134;57;1137143;-77
2021/05/26 04:01:53;;;;;;;1.67;1.10;;;;;;;8.70;76.61;100553.55;5091075;57;1136320;-74
2021/05/26 04:07:01;;;;;;;1.17;0.90;;;;;;;8.74;76.68;100551.89;5090648;57;1136540;-75
2021/05/26 04:12:09;;;;;;;3.20;1.20;;;;;;;8.80;76.89;100553.27;5091091;57;1136395;-80
2021/05/26 04:17:19;;;;;;;12.93;1.85;;;;;;;8.82;76.69;100556.66;5076633;57;1136772;-77
2021/05/26 04:22:39;;;;;;;1.90;1.20;;;;;;;8.91;76.43;100554.67;5090652;57;1138378;-78
2021/05/26 04:27:46;;;;;;;3.83;2.13;;;;;;;8.97;76.65;100548.98;5090836;57;1136549;-71
2021/05/26 04:32:52;;;;;;;2.33;1.27;;;;;;;9.04;76.47;100556.81;5090991;57;1136432;-74
2021/05/26 04:38:00;;;;;;;7.30;1.67;;;;;;;9.16;76.40;100556.45;5086325;57;1136300;-79
2021/05/26 04:43:06;;;;;;;1.33;1.10;;;;;;;9.22;76.28;100550.72;5066864;57;1136754;-73
2021/05/26 04:48:12;;;;;;;0.50;0.50;;;;;;;9.37;76.28;100554.89;5066717;57;1137004;-75
2021/05/26 04:53:18;;;;;;;1.07;0.60;;;;;;;9.51;76.12;100548.61;5066780;57;1140522;-72
2021/05/26 04:58:24;;;;;;;0.70;0.70;;;;;;;9.61;75.57;100549.66;5066667;57;1136527;-77
2021/05/26 05:03:29;;;;;;;9.63;3.63;;;;;;;9.65;75.23;100555.53;5066585;56;1136524;-75
2021/05/26 05:08:37;;;;;;;2.97;1.20;;;;;;;9.69;75.20;100549.07;5144849;56;1137022;-76
2021/05/26 05:13:43;;;;;;;3.67;0.93;;;;;;;9.72;75.00;100541.77;5123193;56;1136784;-77
2021/05/26 05:18:49;;;;;;;1.33;1.10;;;;;;;9.81;75.27;100533.63;5119189;56;1137012;-77
2021/05/26 05:23:54;;;;;;;2.53;0.90;;;;;;;9.81;75.27;100533.63;5095368;56;1136899;-77
2021/05/26 05:29:00;;;;;;;1.00;1.00;;;;;;;9.90;74.65;100542.22;5065227;57;1136922;-79
2021/05/26 05:34:06;;;;;;;0.57;0.57;;;;;;;9.89;74.52;100544.49;5045238;57;1137778;-77
2021/05/26 05:39:12;;;;;;;1.12;0.80;;;;;;;9.87;74.74;100545.08;5068653;57;1136871;-76
2021/05/26 05:44:18;;;;;;;2.30;0.80;;;;;;;9.89;74.92;100548.45;5098003;57;1137047;-76
2021/05/26 05:49:24;;;;;;;1.70;1.10;;;;;;;9.90;74.49;100551.46;5098566;57;1137216;-74
2021/05/26 05:54:30;;;;;;;2.30;1.23;;;;;;;9.86;74.44;100550.84;5097719;57;1136969;-82
2021/05/26 05:59:36;;;;;;;1.83;0.70;;;;;;;9.86;74.44;100553.95;5119653;56;1137377;-78
2021/05/26 06:04:41;;;;;;;2.67;1.83;;;;;;;9.87;74.71;100532.72;5173875;56;1136929;-73
2021/05/26 06:09:47;;;;;;;5.17;2.33;;;;;;;9.91;74.74;100534.66;5172777;56;1137023;-78
2021/05/26 06:14:53;;;;;;;4.67;1.97;;;;;;;9.98;74.82;100529.27;5172865;56;1136817;-79
2021/05/26 06:19:59;;;;;;;3.87;1.40;;;;;;;10.08;74.80;100535.53;5173566;56;1136852;-79
2021/05/26 06:25:06;;;;;;;3.27;1.43;;;;;;;10.16;74.54;100533.17;5171403;56;1202328;-74
2021/05/26 06:30:12;;;;;;;0.98;0.98;;;;;;;10.23;74.79;100529.63;5173449;56;1139232;-78
2021/05/26 06:35:19;;;;;;;3.12;1.17;;;;;;;10.36;74.64;100524.25;5172763;56;1139105;-73
2021/05/26 06:40:25;;;;;;;2.43;1.20;;;;;;;10.53;73.93;100524.64;5172860;56;1139040;-78
2021/05/26 06:45:31;;;;;;;1.70;0.93;;;;;;;10.70;73.46;100518.48;5152116;56;1139348;-76
2021/05/26 06:50:38;;;;;;;9.67;1.23;;;;;;;10.97;73.01;100507.08;5152240;56;1139080;-73
2021/05/26 06:55:43;;;;;;;1.27;0.70;;;;;;;11.05;72.19;100519.20;5153050;56;1139152;-74
2021/05/26 07:00:49;;;;;;;4.60;1.40;;;;;;;11.10;70.41;100503.81;5118699;56;1138796;-75
2021/05/26 07:05:55;;;;;;;1.53;0.50;;;;;;;11.21;72.04;100502.94;5087326;57;1138908;-76
2021/05/26 07:11:01;;;;;;;1.82;0.90;;;;;;;11.37;70.79;100503.39;5088023;57;1139166;-74
2021/05/26 07:16:08;;;;;;;2.17;0.73;;;;;;;11.38;70.85;100505.55;5093140;57;1139032;-72
2021/05/26 07:21:16;;;;;;;1.57;0.70;;;;;;;11.47;70.61;100502.98;5072313;57;1139041;-73
2021/05/26 07:26:23;;;;;;;3.53;1.70;;;;;;;11.70;68.95;100500.27;5087756;57;1139116;-74
2021/05/26 07:31:30;;;;;;;3.23;0.77;;;;;;;11.85;68.58;100495.91;5088259;57;1139148;-73
2021/05/26 07:36:36;;;;;;;0.50;0.50;;;;;;;11.98;69.20;100499.21;5087084;57;1139056;-72
2021/05/26 07:41:43;;;;;;;1.07;0.70;;;;;;;12.21;67.82;100489.81;5087664;57;1138859;-72
2021/05/26 07:46:48;;;;;;;3.30;1.57;;;;;;;12.42;67.18;100497.73;5095637;57;1138969;-75
2021/05/26 07:51:56;;;;;;;5.63;1.97;;;;;;;12.58;64.68;100508.71;5096130;57;1139291;-71
2021/05/26 07:57:03;;;;;;;5.20;1.90;;;;;;;12.49;64.71;100497.58;5096121;57;1139237;-73
2021/05/26 08:02:11;;;;;;;1.30;1.20;;;;;;;12.36;65.10;100503.58;5157445;56;1148347;-75
2021/05/26 08:07:15;;;;;;;2.47;1.00;;;;;;;12.37;64.70;100509.24;5172843;56;1138985;-76
2021/05/26 08:12:21;;;;;;;0.98;0.95;;;;;;;12.59;64.34;100493.99;5173548;56;1139125;-76
2021/05/26 08:17:27;;;;;;;1.70;0.60;;;;;;;12.66;63.66;100487.20;5173038;56;1138931;-78
2021/05/26 08:22:33;;;;;;;1.37;0.97;;;;;;;12.67;63.66;100491.53;5173508;56;1138775;-71
2021/05/26 08:27:39;;;;;;;3.97;1.90;;;;;;;12.82;63.62;100484.05;5173144;56;1139129;-72
2021/05/26 08:32:44;;;;;;;8.97;2.60;;;;;;;12.99;63.49;100483.86;5173421;56;1139053;-77
2021/05/26 08:37:49;;;;;;;2.03;1.00;;;;;;;13.29;63.27;100475.05;5172997;56;1138883;-76
2021/05/26 08:42:55;;;;;;;1.57;0.60;;;;;;;13.38;62.53;100488.34;5173750;56;1138935;-75
2021/05/26 08:48:05;;;;;;;2.00;0.70;;;;;;;13.39;59.46;100487.84;5173200;56;1139133;-76
2021/05/26 08:53:11;;;;;;;1.33;1.17;;;;;;;13.26;59.97;100487.27;5173727;56;1139173;-80
2021/05/26 08:58:16;;;;;;;1.75;1.00;;;;;;;13.22;61.69;100482.72;5172162;56;1138936;-73
2021/05/26 09:03:22;;;;;;;2.20;0.82;;;;;;;13.18;60.56;100482.62;5097456;57;1139086;-72
2021/05/26 09:08:28;;;;;;;1.67;0.87;;;;;;;13.16;60.54;100479.27;5096039;57;1138938;-70
2021/05/26 09:13:39;;;;;;;5.40;1.57;;;;;;;13.12;61.00;100477.01;5096515;57;1138905;-75
2021/05/26 09:19:06;;;;;;;2.10;0.70;;;;;;;13.12;61.00;100477.01;5095977;57;1138442;-75
2021/05/26 09:24:26;;;;;;;2.23;0.70;;;;;;;13.15;60.79;100484.22;5096531;57;1138860;-71
2021/05/26 09:29:48;;;;;;;3.30;1.23;;;;;;;13.17;60.67;100488.08;5165931;56;1138711;-74
2021/05/26 09:34:55;;;;;;;1.10;0.87;;;;;;;13.21;60.61;100486.83;5171908;56;1139172;-78
2021/05/26 09:40:07;;;;;;;1.80;0.77;;;;;;;13.27;59.58;100484.97;5114893;56;1138808;-74
2021/05/26 09:45:20;;;;;;;1.87;1.10;;;;;;;13.54;60.52;100482.48;5096655;57;1139006;-78
2021/05/26 09:50:32;;;;;;;0.37;0.33;;;;;;;13.76;58.86;100475.19;5095644;57;1138723;-78
2021/05/26 09:55:43;;;;;;;4.25;0.60;;;;;;;14.04;61.03;100466.38;5095581;57;1138645;-74
2021/05/26 10:00:50;;;;;;;1.73;0.90;;;;;;;14.33;57.97;100461.83;5115254;56;1139082;-75
2021/05/26 10:05:57;;;;;;;0.77;0.60;;;;;;;14.55;57.04;100464.64;5107141;56;1138459;-79
2021/05/26 10:11:21;;;;;;;4.42;1.30;;;;;;;14.55;57.04;100464.64;5096345;57;1138856;-73
2021/05/26 10:16:32;;;;;;;5.28;0.78;;;;;;;14.74;55.66;100456.59;5095592;57;1138997;-77
2021/05/26 10:21:37;;;;;;;11.03;0.97;;;;;;;14.62;54.60;100449.78;5090915;57;1139401;-73
2021/05/26 10:26:59;;;;;;;2.53;0.80;;;;;;;14.52;55.87;100448.13;5094468;57;1140908;-72
2021/05/26 10:32:21;;;;;;;4.30;0.73;;;;;;;14.62;55.66;100449.78;5119946;56;1139176;-78
2021/05/26 10:37:35;;;;;;;0.82;0.62;;;;;;;14.68;54.31;100442.52;5184280;56;1139122;-86
2021/05/26 10:42:38;;;;;;;3.83;0.77;;;;;;;14.92;52.56;100438.00;5123859;56;1138837;-74
2021/05/26 10:47:51;;;;;;;0.70;0.70;;;;;;;14.87;53.50;100421.62;5178129;56;1138877;-75
2021/05/26 10:53:03;;;;;;;0.63;0.63;;;;;;;14.84;53.28;100421.08;5169172;56;1138966;-74
2021/05/26 10:58:25;;;;;;;3.07;1.03;;;;;;;14.81;53.41;100418.73;5135431;56;1138823;-77
2021/05/26 11:03:37;;;;;;;1.93;0.80;;;;;;;14.93;54.43;100413.55;5168718;56;1139130;-77
2021/05/26 11:08:49;;;;;;;4.83;1.30;;;;;;;14.94;52.98;100407.23;5169102;56;1139161;-77
2021/05/26 11:14:18;;;;;;;1.50;0.80;;;;;;;14.83;53.12;100386.11;5130050;56;1138772;-77
2021/05/26 11:19:30;;;;;;;2.37;1.20;;;;;;;15.02;53.46;100389.50;5053817;57;1139057;-75
2021/05/26 11:24:39;;;;;;;;;;;;;;;15.32;52.77;100382.97;5068158;56;1138610;-75
2021/05/26 11:29:49;;;;;;;3.37;1.13;;;;;;;15.69;51.66;100369.98;5075646;57;976108;-75
2021/05/26 11:34:57;;;;;;;3.60;0.87;;;;;;;16.08;50.34;100371.23;5063074;57;1136467;-73
2021/05/26 11:40:23;;;;;;;3.83;0.90;;;;;;;16.40;48.43;100361.72;5088977;56;1138707;-73
2021/05/26 11:45:29;;;;;;;3.72;0.80;;;;;;;16.73;47.88;100352.87;5159255;56;1138629;-79
2021/05/26 11:50:37;;;;;;;5.87;1.00;;;;;;;16.84;46.42;100351.72;5171810;56;1138543;-74
2021/05/26 11:55:50;;;;;;;1.80;1.00;;;;;;;16.99;45.02;100343.90;5171104;56;1138631;-80
2021/05/26 12:01:02;;;;;;;6.27;0.93;;;;;;;17.03;45.70;100335.90;5108288;56;1138657;-80
2021/05/26 12:06:09;;;;;;;3.53;0.97;;;;;;;17.17;45.91;100340.09;5146938;56;1138411;-74
2021/05/26 12:11:18;;;;;;;4.50;1.47;;;;;;;17.17;43.84;100335.24;5149477;56;1138613;-76
2021/05/26 12:16:24;;;;;;;6.75;0.80;;;;;;;17.01;44.06;100330.72;5129686;56;1138632;-79
2021/05/26 12:21:31;;;;;;;7.53;1.20;;;;;;;16.92;43.90;100310.34;5121172;56;1138569;-75
2021/05/26 12:26:38;;;;;;;889.83;402.77;;;;;;;16.88;44.52;100310.33;5145372;56;1138705;-74
2021/05/26 12:31:44;;;;;;;38.27;29.17;;;;;;;17.05;42.95;100309.35;5063532;57;1147152;-79
2021/05/26 12:36:54;;;;;;;6.63;1.60;;;;;;;17.12;42.79;100302.83;5080788;56;1142832;-79
2021/05/26 12:42:00;;;;;;;198.30;92.47;;;;;;;17.33;42.79;100287.63;5158257;56;1138736;-78
2021/05/26 12:47:11;;;;;;;0.77;0.77;;;;;;;17.51;41.03;100277.59;5149213;56;1144879;-77
2021/05/26 12:52:30;;;;;;;728.13;560.60;;;;;;;17.41;41.83;100272.44;5150402;56;1138596;-79
2021/05/26 12:57:39;;;;;;;1.33;1.23;;;;;;;17.50;42.14;100279.94;5149173;56;1146897;-79
2021/05/26 13:02:46;;;;;;;2.00;0.80;;;;;;;17.57;41.30;100268.88;5149791;56;1138439;-77
2021/05/26 13:07:53;;;;;;;3.90;0.73;;;;;;;17.51;40.65;100277.59;5149584;56;1138422;-79
2021/05/26 13:13:29;;;;;;;3.23;1.00;;;;;;;17.36;40.47;100276.11;5149877;56;1138445;-79
2021/05/26 13:18:36;;;;;;;3.63;1.00;;;;;;;17.38;41.93;100262.08;5149922;56;1138694;-77
2021/05/26 13:23:42;;;;;;;3.87;0.70;;;;;;;17.40;41.78;100277.95;5150271;56;1139393;-75
2021/05/26 13:28:49;;;;;;;4.90;0.90;;;;;;;17.32;41.07;100276.61;5156624;56;1139186;-75
2021/05/26 13:33:55;;;;;;;6.83;1.37;;;;;;;17.15;42.72;100271.77;5170688;56;1138948;-75
2021/05/26 13:39:01;;;;;;;1.93;0.60;;;;;;;17.03;43.17;100270.44;5170896;56;1138983;-75
2021/05/26 13:44:07;;;;;;;8.00;5.03;;;;;;;16.89;43.49;100283.95;5171065;56;1139139;-78
2021/05/26 13:49:14;;;;;;;2.30;0.90;;;;;;;16.72;44.53;100294.27;5183307;56;1138955;-77
2021/05/26 13:54:20;;;;;;;3.02;0.70;;;;;;;16.58;44.99;100294.87;5162991;56;1138936;-74
2021/05/26 13:59:26;;;;;;;2.93;0.80;;;;;;;15.88;53.24;100308.95;5178500;56;1139184;-77
2021/05/26 14:04:32;;;;;;;2.17;1.70;;;;;;;15.13;58.12;100328.49;5107487;56;1138993;-75
2021/05/26 14:09:39;;;;;;;53.53;24.87;;;;;;;14.63;60.37;100334.84;5103097;56;1138989;-74
2021/05/26 14:14:45;;;;;;;123.33;73.63;;;;;;;14.31;60.88;100326.78;5168698;56;1143074;-72
2021/05/26 14:19:50;;;;;;;11.57;8.53;;;;;;;14.13;60.65;100329.87;5136232;56;1145381;-75
2021/05/26 14:24:56;;;;;;;1.60;0.97;;;;;;;14.22;61.31;100326.31;5103492;56;1141233;-77
2021/05/26 14:30:03;;;;;;;8.87;3.57;;;;;;;14.24;60.70;100320.36;5093253;57;1139246;-73
2021/05/26 14:35:11;;;;;;;223.87;93.67;;;;;;;14.30;60.47;100319.78;5096162;56;1139124;-75
2021/05/26 14:40:19;;;;;;;103.00;61.43;;;;;;;14.32;60.37;100320.48;5092620;56;1145453;-72
2021/05/26 14:45:25;;;;;;;11.93;4.90;;;;;;;14.30;61.31;100330.92;5147634;55;1145061;-73
2021/05/26 14:50:31;;;;;;;13.87;4.33;;;;;;;14.24;61.96;100338.98;5162629;55;1140996;-74
2021/05/26 14:55:37;;;;;;;9.83;4.20;;;;;;;14.15;62.91;100345.19;5167925;55;1140973;-74
2021/05/26 15:00:45;;;;;;;17.33;6.37;;;;;;;14.03;64.38;100336.56;5167602;55;1139156;-75
2021/05/26 15:05:50;;;;;;;13.60;6.00;;;;;;;13.94;65.01;100334.76;5169018;55;1140999;-74
2021/05/26 15:11:01;;;;;;;13.73;5.97;;;;;;;13.89;66.36;100338.36;5175678;55;1141031;-76
2021/05/26 15:16:04;;;;;;;28.57;9.90;;;;;;;13.78;66.46;100341.66;5176273;55;1141145;-75
2021/05/26 15:21:11;;;;;;;12.10;5.10;;;;;;;13.70;66.70;100309.17;5176182;55;1141114;-71
2021/05/26 15:26:17;;;;;;;5.97;3.47;;;;;;;13.62;67.49;100284.63;5176452;55;1141201;-76
2021/05/26 15:31:23;;;;;;;23.38;7.00;;;;;;;13.66;67.86;100283.86;5176709;55;1139079;-71
2021/05/26 15:36:31;;;;;;;7.05;3.70;;;;;;;13.73;67.45;100280.48;5176274;55;1141214;-76
2021/05/26 15:41:40;;;;;;;17.70;6.73;;;;;;;13.79;67.12;100267.09;5153677;55;1138600;-74
2021/05/26 15:46:52;;;;;;;11.80;3.53;;;;;;;13.88;66.50;100262.25;5090787;56;1140468;-73
2021/05/26 15:51:56;;;;;;;6.87;4.03;;;;;;;13.93;66.20;100254.65;5119637;55;1141143;-76
2021/05/26 15:57:02;;;;;;;18.17;5.92;;;;;;;14.06;66.04;100252.48;5171501;55;1138686;-75
2021/05/26 16:02:08;;;;;;;10.30;4.87;;;;;;;14.09;66.02;100251.36;5111377;55;1140434;-75
2021/05/26 16:07:14;;;;;;;24.60;7.43;;;;;;;14.16;65.36;100249.79;5162701;55;1140480;-76
2021/05/26 16:12:20;;;;;;;14.17;5.37;;;;;;;14.20;65.34;100252.51;5163213;55;1140663;-74
2021/05/26 16:17:26;;;;;;;31.23;9.50;;;;;;;14.17;65.08;100251.95;5092109;56;1140864;-74
2021/05/26 16:22:33;;;;;;;1.65;1.32;;;;;;;14.16;64.98;100247.63;5147334;55;1141159;-74
2021/05/26 16:27:40;;;;;;;12.77;4.97;;;;;;;14.11;64.46;100243.23;5162544;55;1138852;-75
2021/05/26 16:32:47;;;;;;;8.57;3.57;;;;;;;14.02;64.78;100240.98;5159334;55;1140784;-72
2021/05/26 16:37:55;;;;;;;11.93;5.43;;;;;;;14.04;64.88;100239.85;5158113;55;1138530;-77
2021/05/26 16:43:01;;;;;;;10.47;5.03;;;;;;;14.03;65.05;100236.02;4994255;57;1140605;-80
2021/05/26 16:48:07;;;;;;;14.00;6.90;;;;;;;13.98;64.96;100251.55;5032690;57;1140746;-76
2021/05/26 16:53:13;;;;;;;9.73;3.70;;;;;;;13.92;65.33;100247.66;5040516;58;1140762;-77
2021/05/26 16:58:19;;;;;;;45.60;28.80;;;;;;;13.86;65.64;100252.73;5047376;57;1138511;-71
2021/05/26 17:03:25;;;;;;;9.85;7.25;;;;;;;13.87;65.91;100250.42;5063721;57;1142681;-78
2021/05/26 17:08:30;;;;;;;18.00;8.73;;;;;;;13.87;66.30;100262.39;5064173;57;1138618;-82
2021/05/26 17:13:36;;;;;;;7.00;2.83;;;;;;;13.88;67.25;100276.03;5063877;57;1140594;-75
2021/05/26 17:18:42;;;;;;;17.33;13.10;;;;;;;13.88;67.56;100268.05;5063721;57;1138488;-76
2021/05/26 17:23:50;;;;;;;28.57;11.77;;;;;;;13.98;68.06;100271.50;5063056;57;1142803;-76
2021/05/26 17:28:55;;;;;;;677.90;232.17;;;;;;;14.03;68.16;100278.55;5063471;57;1142547;-77
2021/05/26 17:34:01;;;;;;;78.20;34.53;;;;;;;13.92;68.70;100280.89;5058457;57;1147421;-73
2021/05/26 17:39:08;;;;;;;31.27;14.97;;;;;;;13.77;69.70;100289.48;5063163;57;1143001;-76
2021/05/26 17:44:15;;;;;;;5.17;2.37;;;;;;;13.66;70.29;100287.35;5085267;56;1142666;-78
2021/05/26 17:49:22;;;;;;;38.93;19.77;;;;;;;13.40;72.74;100301.41;5090303;56;1138582;-73
2021/05/26 17:54:43;;;;;;;4.47;3.97;;;;;;;13.08;73.96;100313.14;5089922;56;1143112;-73
2021/05/26 17:59:49;;;;;;;7.17;4.47;;;;;;;12.75;76.52;100326.80;5087626;56;1139056;-78
2021/05/26 18:04:54;;;;;;;5.17;3.70;;;;;;;12.41;78.38;100327.63;5103316;55;1139109;-76
2021/05/26 18:10:00;;;;;;;10.70;5.13;;;;;;;12.19;77.17;100322.06;5128187;55;1138970;-77
2021/05/26 18:15:09;;;;;;;4.93;4.40;;;;;;;12.17;77.05;100312.08;5110771;55;1141322;-79
2021/05/26 18:20:19;;;;;;;95.57;62.93;;;;;;;12.13;77.43;100284.98;5129309;55;1139051;-76
2021/05/26 18:25:28;;;;;;;10.10;6.37;;;;;;;12.26;76.89;100266.18;5086950;56;1143010;-78
2021/05/26 18:30:36;;;;;;;19.13;11.93;;;;;;;12.30;75.93;100266.27;5113945;55;1140888;-77
2021/05/26 18:35:43;;;;;;;12.27;6.30;;;;;;;12.39;75.81;100268.58;5102531;56;1142992;-78
2021/05/26 18:40:50;;;;;;;26.87;13.00;;;;;;;12.38;75.46;100267.73;5128781;57;1140604;-76
2021/05/26 18:45:55;;;;;;;10.17;4.10;;;;;;;12.43;75.55;100283.25;5128671;56;1142657;-75
2021/05/26 18:51:02;;;;;;;6.73;5.03;;;;;;;12.42;75.53;100274.45;5126227;57;1141015;-76
2021/05/26 18:56:07;;;;;;;53.73;24.97;;;;;;;12.44;75.78;100265.88;5125028;57;1138586;-75
2021/05/26 19:01:15;;;;;;;31.10;13.40;;;;;;;12.52;75.72;100262.55;5125061;57;1142717;-76
2021/05/26 19:06:21;;;;;;;7.20;3.87;;;;;;;12.63;75.48;100264.58;5125257;57;1143107;-79
2021/05/26 19:11:27;;;;;;;74.25;40.83;;;;;;;12.66;75.22;100265.64;4978962;57;1138612;-78
2021/05/26 19:16:34;;;;;;;43.27;15.97;;;;;;;12.63;75.69;100265.91;5125569;56;1143382;-79
2021/05/26 19:21:41;;;;;;;43.30;26.40;;;;;;;12.68;75.23;100258.84;5125109;57;1142621;-76
2021/05/26 19:26:51;;;;;;;14.77;6.30;;;;;;;12.73;75.22;100259.76;5122607;57;1143010;-75
2021/05/26 19:31:57;;;;;;;26.80;9.80;;;;;;;12.72;75.14;100255.42;5089815;57;1140843;-75
2021/05/26 19:37:02;;;;;;;15.73;6.27;;;;;;;12.71;75.11;100265.20;5041530;57;1140790;-73
2021/05/26 19:42:09;;;;;;;8.53;4.53;;;;;;;12.72;74.99;100260.73;4899956;57;1140894;-72
2021/05/26 19:47:15;;;;;;;3.87;2.10;;;;;;;12.69;75.18;100261.84;5060482;56;1138735;-78
2021/05/26 19:52:21;;;;;;;26.00;9.90;;;;;;;12.64;74.99;100262.28;5069022;56;1142112;-78
2021/05/26 19:57:27;;;;;;;25.70;11.10;;;;;;;12.57;75.18;100257.16;5090141;56;1141202;-75
2021/05/26 20:02:34;;;;;;;2.40;2.30;;;;;;;12.56;74.92;100245.36;5089538;56;1143056;-72
2021/05/26 20:07:41;;;;;;;3.27;2.00;;;;;;;12.53;74.98;100237.19;5093712;56;1138879;-76
2021/05/26 20:12:48;;;;;;;1.95;1.50;;;;;;;12.46;75.87;100234.75;5087921;56;1138854;-79
2021/05/26 20:17:58;;;;;;;2.62;1.65;;;;;;;12.36;75.74;100233.07;5111380;56;1138816;-74
2021/05/26 20:23:01;;;;;;;3.20;2.50;;;;;;;12.31;75.60;100236.13;5122995;56;1138794;-76
2021/05/26 20:28:07;;;;;;;5.50;2.10;;;;;;;12.33;75.57;100242.13;5134030;55;1138662;-77
2021/05/26 20:33:13;;;;;;;3.67;2.20;;;;;;;12.35;75.97;100238.02;5086272;56;1138652;-77
2021/05/26 20:38:20;;;;;;;4.00;2.07;;;;;;;12.32;75.75;100237.31;5144779;55;1138673;-74
2021/05/26 20:43:26;;;;;;;4.20;2.33;;;;;;;12.28;75.78;100244.34;5178659;55;1138632;-73
2021/05/26 20:48:32;;;;;;;4.45;2.42;;;;;;;12.24;76.24;100249.08;5178678;55;1138842;-73
2021/05/26 20:53:38;;;;;;;8.30;4.67;;;;;;;12.08;75.70;100243.94;5179001;55;1138854;-74
2021/05/26 20:58:43;;;;;;;23.80;11.23;;;;;;;12.08;75.70;100243.94;5178789;55;1138668;-74
2021/05/26 21:03:50;;;;;;;14.67;5.83;;;;;;;12.12;76.15;100244.87;5178282;55;1142790;-76
2021/05/26 21:08:56;;;;;;;8.35;5.05;;;;;;;12.17;76.08;100254.59;5178544;55;1140764;-77
2021/05/26 21:14:03;;;;;;;7.63;4.47;;;;;;;12.12;76.07;100255.95;5179116;55;1138661;-79
2021/05/26 21:19:09;;;;;;;14.90;7.40;;;;;;;12.06;76.15;100252.05;5135928;55;1138448;-77
2021/05/26 21:24:16;;;;;;;10.00;5.13;;;;;;;11.92;76.04;100249.26;5093693;56;1140508;-71
2021/05/26 21:29:23;;;;;;;11.07;4.93;;;;;;;11.95;76.53;100246.83;5096428;56;1140748;-75
2021/05/26 21:34:28;;;;;;;4.27;3.73;;;;;;;12.01;76.60;100250.77;5081039;56;1140774;-78
2021/05/26 21:39:34;;;;;;;19.52;7.58;;;;;;;11.97;76.62;100247.54;5096684;56;1138688;-74
2021/05/26 21:44:39;;;;;;;23.90;8.00;;;;;;;11.91;76.76;100243.64;5096791;56;1140736;-80
2021/05/26 21:49:46;;;;;;;8.83;5.10;;;;;;;11.89;76.79;100244.25;5094597;56;1140764;-74
2021/05/26 21:54:52;;;;;;;14.07;5.93;;;;;;;11.93;76.75;100244.80;5093350;56;1138746;-76
2021/05/26 21:59:59;;;;;;;15.87;7.10;;;;;;;12.00;76.99;100234.52;5048654;57;1141143;-77
2021/05/26 22:05:05;;;;;;;55.20;19.60;;;;;;;12.04;76.91;100237.25;5091540;57;1141185;-75
2021/05/26 22:10:14;;;;;;;5.47;3.47;;;;;;;12.04;76.99;100230.63;5086225;57;1143270;-76
2021/05/26 22:15:25;;;;;;;12.63;6.30;;;;;;;12.04;76.79;100223.52;5087240;57;1138625;-74
2021/05/26 22:20:32;;;;;;;10.55;5.75;;;;;;;12.07;76.73;100223.22;5086387;57;1140827;-74
2021/05/26 22:25:38;;;;;;;5.50;3.37;;;;;;;12.06;76.72;100218.92;5086953;57;1140888;-71
2021/05/26 22:30:46;;;;;;;6.03;4.20;;;;;;;11.99;76.87;100203.19;5087262;57;1138904;-71
2021/05/26 22:35:52;;;;;;;4.57;3.70;;;;;;;11.84;76.80;100200.57;5087332;57;1138684;-72
2021/05/26 22:40:58;;;;;;;43.60;12.83;;;;;;;11.80;76.92;100205.29;5087577;57;1138721;-80
2021/05/26 22:51:10;;;;;;;15.97;6.73;;;;;;;11.76;77.04;100199.09;5087535;57;1140773;-74
2021/05/26 22:56:16;;;;;;;12.87;5.30;;;;;;;11.67;76.83;100195.39;5087479;57;1140959;-77
2021/05/26 23:01:22;;;;;;;17.70;10.47;;;;;;;11.56;76.72;100195.48;5087518;57;1140955;-74
2021/05/26 23:06:28;;;;;;;19.45;9.55;;;;;;;11.49;76.75;100193.84;5087628;57;1143269;-76
2021/05/26 23:11:34;;;;;;;23.36;7.00;;;;;;;11.43;77.18;100177.19;5012675;57;1141365;-73
2021/05/26 23:16:40;;;;;;;7.05;3.95;;;;;;;11.38;77.33;100178.54;5007703;58;1141023;-73
2021/05/26 23:21:47;;;;;;;25.07;8.30;;;;;;;11.39;77.32;100173.59;5007691;58;1139116;-75